sensor_id;sensor_type;location;lat;lon;timestamp;P1;durP1;ratioP1;P2;durP2;ratioP2
71172;SDS011;58875;51.996;4.504;2023-03-04T00:00:11;6.79;;;5.65;;
71172;SDS011;58875;51.996;4.504;2023-03-04T00:02:37;6.43;;;5.96;;
71172;SDS011;58875;51.996;4.504;2023-03-04T00:05:02;5.65;;;5.47;;
71172;SDS011;58875;51.996;4.504;2023-03-04T00:07:31;5.37;;;4.91;;
71172;SDS011;58875;51.996;4.504;2023-03-04T00:09:56;4.92;;;4.42;;
71172;SDS011;58875;51.996;4.504;2023-03-04T00:12:22;4.99;;;4.29;;
71172;SDS011;58875;51.996;4.504;2023-03-04T00:14:48;5.61;;;4.65;;
71172;SDS011;58875;51.996;4.504;2023-03-04T00:17:13;5.46;;;4.41;;
71172;SDS011;58875;51.996;4.504;2023-03-04T00:19:40;5.44;;;4.36;;
71172;SDS011;58875;51.996;4.504;2023-03-04T00:22:06;6.72;;;5.13;;
71172;SDS011;58875;51.996;4.504;2023-03-04T00:24:32;5.90;;;4.55;;
71172;SDS011;58875;51.996;4.504;2023-03-04T00:26:59;6.25;;;4.76;;
71172;SDS011;58875;51.996;4.504;2023-03-04T00:29:25;6.29;;;4.80;;
71172;SDS011;58875;51.996;4.504;2023-03-04T00:31:51;6.06;;;4.70;;
71172;SDS011;58875;51.996;4.504;2023-03-04T00:34:17;5.51;;;4.32;;
71172;SDS011;58875;51.996;4.504;2023-03-04T00:36:43;5.35;;;4.15;;
71172;SDS011;58875;51.996;4.504;2023-03-04T00:39:09;5.98;;;4.53;;
71172;SDS011;58875;51.996;4.504;2023-03-04T00:41:36;6.13;;;4.47;;
71172;SDS011;58875;51.996;4.504;2023-03-04T00:44:02;6.23;;;4.47;;
71172;SDS011;58875;51.996;4.504;2023-03-04T00:46:27;5.96;;;4.26;;
71172;SDS011;58875;51.996;4.504;2023-03-04T00:48:53;6.57;;;4.57;;
71172;SDS011;58875;51.996;4.504;2023-03-04T00:51:18;7.19;;;4.87;;
71172;SDS011;58875;51.996;4.504;2023-03-04T00:53:44;6.71;;;4.58;;
71172;SDS011;58875;51.996;4.504;2023-03-04T00:56:10;6.31;;;4.39;;
71172;SDS011;58875;51.996;4.504;2023-03-04T00:58:35;6.09;;;4.24;;
71172;SDS011;58875;51.996;4.504;2023-03-04T01:01:01;6.93;;;4.68;;
71172;SDS011;58875;51.996;4.504;2023-03-04T01:03:27;7.40;;;4.86;;
71172;SDS011;58875;51.996;4.504;2023-03-04T01:05:55;7.63;;;5.03;;
71172;SDS011;58875;51.996;4.504;2023-03-04T01:08:21;7.44;;;4.93;;
71172;SDS011;58875;51.996;4.504;2023-03-04T01:10:47;7.21;;;4.81;;
71172;SDS011;58875;51.996;4.504;2023-03-04T01:13:12;6.12;;;4.09;;
71172;SDS011;58875;51.996;4.504;2023-03-04T01:15:38;6.99;;;4.64;;
71172;SDS011;58875;51.996;4.504;2023-03-04T01:18:03;6.43;;;4.24;;
71172;SDS011;58875;51.996;4.504;2023-03-04T01:20:30;6.31;;;4.17;;
71172;SDS011;58875;51.996;4.504;2023-03-04T01:22:56;6.17;;;4.05;;
71172;SDS011;58875;51.996;4.504;2023-03-04T01:25:21;6.67;;;4.31;;
71172;SDS011;58875;51.996;4.504;2023-03-04T01:27:47;6.61;;;4.24;;
71172;SDS011;58875;51.996;4.504;2023-03-04T01:30:13;6.57;;;4.29;;
71172;SDS011;58875;51.996;4.504;2023-03-04T01:32:38;5.51;;;3.66;;
71172;SDS011;58875;51.996;4.504;2023-03-04T01:35:04;5.39;;;3.55;;
71172;SDS011;58875;51.996;4.504;2023-03-04T01:37:30;6.28;;;4.09;;
71172;SDS011;58875;51.996;4.504;2023-03-04T01:39:56;5.50;;;3.57;;
71172;SDS011;58875;51.996;4.504;2023-03-04T01:42:22;6.22;;;4.04;;
71172;SDS011;58875;51.996;4.504;2023-03-04T01:44:51;7.10;;;4.60;;
71172;SDS011;58875;51.996;4.504;2023-03-04T01:47:18;6.45;;;4.22;;
71172;SDS011;58875;51.996;4.504;2023-03-04T01:49:48;5.97;;;3.89;;
71172;SDS011;58875;51.996;4.504;2023-03-04T01:52:18;6.60;;;4.28;;
71172;SDS011;58875;51.996;4.504;2023-03-04T01:54:44;6.58;;;4.22;;
71172;SDS011;58875;51.996;4.504;2023-03-04T01:59:43;7.34;;;4.66;;
71172;SDS011;58875;51.996;4.504;2023-03-04T02:02:10;7.13;;;4.60;;
71172;SDS011;58875;51.996;4.504;2023-03-04T02:04:37;7.38;;;4.78;;
71172;SDS011;58875;51.996;4.504;2023-03-04T02:07:05;6.98;;;4.58;;
71172;SDS011;58875;51.996;4.504;2023-03-04T02:09:31;6.58;;;4.32;;
71172;SDS011;58875;51.996;4.504;2023-03-04T02:11:59;6.47;;;4.24;;
71172;SDS011;58875;51.996;4.504;2023-03-04T02:14:25;6.72;;;4.43;;
71172;SDS011;58875;51.996;4.504;2023-03-04T02:16:51;6.52;;;4.38;;
71172;SDS011;58875;51.996;4.504;2023-03-04T02:19:35;6.28;;;4.24;;
71172;SDS011;58875;51.996;4.504;2023-03-04T02:22:18;6.18;;;4.11;;
71172;SDS011;58875;51.996;4.504;2023-03-04T02:24:44;6.60;;;4.43;;
71172;SDS011;58875;51.996;4.504;2023-03-04T02:27:19;6.87;;;4.62;;
71172;SDS011;58875;51.996;4.504;2023-03-04T02:29:45;5.98;;;4.00;;
71172;SDS011;58875;51.996;4.504;2023-03-04T02:32:11;5.50;;;3.67;;
71172;SDS011;58875;51.996;4.504;2023-03-04T02:34:41;5.88;;;3.94;;
71172;SDS011;58875;51.996;4.504;2023-03-04T02:37:11;5.14;;;3.45;;
71172;SDS011;58875;51.996;4.504;2023-03-04T02:39:41;5.28;;;3.53;;
71172;SDS011;58875;51.996;4.504;2023-03-04T02:42:09;5.60;;;3.71;;
71172;SDS011;58875;51.996;4.504;2023-03-04T02:44:37;5.66;;;3.70;;
71172;SDS011;58875;51.996;4.504;2023-03-04T02:47:07;6.35;;;4.12;;
71172;SDS011;58875;51.996;4.504;2023-03-04T02:49:35;6.71;;;4.30;;
71172;SDS011;58875;51.996;4.504;2023-03-04T02:52:04;5.59;;;3.56;;
71172;SDS011;58875;51.996;4.504;2023-03-04T02:54:33;6.14;;;3.90;;
71172;SDS011;58875;51.996;4.504;2023-03-04T02:56:59;6.24;;;3.96;;
71172;SDS011;58875;51.996;4.504;2023-03-04T02:59:28;6.47;;;4.11;;
71172;SDS011;58875;51.996;4.504;2023-03-04T03:01:54;7.21;;;4.55;;
71172;SDS011;58875;51.996;4.504;2023-03-04T03:04:23;7.50;;;4.73;;
71172;SDS011;58875;51.996;4.504;2023-03-04T03:06:50;6.57;;;4.17;;
71172;SDS011;58875;51.996;4.504;2023-03-04T03:09:16;6.37;;;4.11;;
71172;SDS011;58875;51.996;4.504;2023-03-04T03:11:42;6.44;;;4.17;;
71172;SDS011;58875;51.996;4.504;2023-03-04T03:14:07;6.89;;;4.43;;
71172;SDS011;58875;51.996;4.504;2023-03-04T03:16:33;7.08;;;4.53;;
71172;SDS011;58875;51.996;4.504;2023-03-04T03:18:59;6.62;;;4.23;;
71172;SDS011;58875;51.996;4.504;2023-03-04T03:21:24;6.83;;;4.41;;
71172;SDS011;58875;51.996;4.504;2023-03-04T03:23:50;6.22;;;4.05;;
71172;SDS011;58875;51.996;4.504;2023-03-04T03:26:16;6.26;;;4.09;;
71172;SDS011;58875;51.996;4.504;2023-03-04T03:28:42;6.41;;;4.17;;
71172;SDS011;58875;51.996;4.504;2023-03-04T03:31:07;6.05;;;3.95;;
71172;SDS011;58875;51.996;4.504;2023-03-04T03:33:33;5.57;;;3.65;;
71172;SDS011;58875;51.996;4.504;2023-03-04T03:35:59;5.25;;;3.44;;
71172;SDS011;58875;51.996;4.504;2023-03-04T03:38:25;5.93;;;3.87;;
71172;SDS011;58875;51.996;4.504;2023-03-04T03:40:51;5.05;;;3.28;;
71172;SDS011;58875;51.996;4.504;2023-03-04T03:43:16;6.05;;;3.90;;
71172;SDS011;58875;51.996;4.504;2023-03-04T03:45:42;6.40;;;4.12;;
71172;SDS011;58875;51.996;4.504;2023-03-04T03:48:08;6.04;;;3.93;;
71172;SDS011;58875;51.996;4.504;2023-03-04T03:50:33;5.77;;;3.75;;
71172;SDS011;58875;51.996;4.504;2023-03-04T03:52:59;6.27;;;4.04;;
71172;SDS011;58875;51.996;4.504;2023-03-04T03:55:25;5.32;;;3.48;;
71172;SDS011;58875;51.996;4.504;2023-03-04T03:57:51;5.44;;;3.56;;
71172;SDS011;58875;51.996;4.504;2023-03-04T04:00:17;5.27;;;3.41;;
71172;SDS011;58875;51.996;4.504;2023-03-04T04:02:43;5.83;;;3.74;;
71172;SDS011;58875;51.996;4.504;2023-03-04T04:05:09;6.15;;;3.89;;
71172;SDS011;58875;51.996;4.504;2023-03-04T04:07:39;5.99;;;3.84;;
71172;SDS011;58875;51.996;4.504;2023-03-04T04:10:06;5.52;;;3.59;;
71172;SDS011;58875;51.996;4.504;2023-03-04T04:12:32;5.27;;;3.44;;
71172;SDS011;58875;51.996;4.504;2023-03-04T04:14:58;5.07;;;3.29;;
71172;SDS011;58875;51.996;4.504;2023-03-04T04:17:24;4.17;;;2.69;;
71172;SDS011;58875;51.996;4.504;2023-03-04T04:19:50;4.12;;;2.67;;
71172;SDS011;58875;51.996;4.504;2023-03-04T04:22:17;5.28;;;3.41;;
71172;SDS011;58875;51.996;4.504;2023-03-04T04:24:45;4.11;;;2.70;;
71172;SDS011;58875;51.996;4.504;2023-03-04T04:27:12;4.15;;;2.73;;
71172;SDS011;58875;51.996;4.504;2023-03-04T04:29:39;4.89;;;3.20;;
71172;SDS011;58875;51.996;4.504;2023-03-04T04:32:05;5.18;;;3.37;;
71172;SDS011;58875;51.996;4.504;2023-03-04T04:34:31;4.79;;;3.12;;
71172;SDS011;58875;51.996;4.504;2023-03-04T04:36:57;5.08;;;3.28;;
71172;SDS011;58875;51.996;4.504;2023-03-04T04:39:23;4.90;;;3.18;;
71172;SDS011;58875;51.996;4.504;2023-03-04T04:41:48;5.04;;;3.31;;
71172;SDS011;58875;51.996;4.504;2023-03-04T04:44:14;4.76;;;3.16;;
71172;SDS011;58875;51.996;4.504;2023-03-04T04:46:40;4.19;;;2.85;;
71172;SDS011;58875;51.996;4.504;2023-03-04T04:49:07;4.25;;;2.90;;
71172;SDS011;58875;51.996;4.504;2023-03-04T04:51:34;4.51;;;3.04;;
71172;SDS011;58875;51.996;4.504;2023-03-04T04:54:01;4.56;;;3.08;;
71172;SDS011;58875;51.996;4.504;2023-03-04T04:56:28;4.52;;;3.09;;
71172;SDS011;58875;51.996;4.504;2023-03-04T04:58:56;4.55;;;3.13;;
71172;SDS011;58875;51.996;4.504;2023-03-04T05:01:25;4.36;;;3.06;;
71172;SDS011;58875;51.996;4.504;2023-03-04T05:03:51;4.02;;;2.87;;
71172;SDS011;58875;51.996;4.504;2023-03-04T05:06:20;4.22;;;3.01;;
71172;SDS011;58875;51.996;4.504;2023-03-04T05:08:47;3.89;;;2.76;;
71172;SDS011;58875;51.996;4.504;2023-03-04T05:11:12;4.17;;;2.95;;
71172;SDS011;58875;51.996;4.504;2023-03-04T05:13:38;4.21;;;2.97;;
71172;SDS011;58875;51.996;4.504;2023-03-04T05:16:04;3.73;;;2.69;;
71172;SDS011;58875;51.996;4.504;2023-03-04T05:18:31;4.77;;;3.40;;
71172;SDS011;58875;51.996;4.504;2023-03-04T05:20:58;4.53;;;3.23;;
71172;SDS011;58875;51.996;4.504;2023-03-04T05:23:26;4.36;;;3.11;;
71172;SDS011;58875;51.996;4.504;2023-03-04T05:25:54;4.41;;;3.14;;
71172;SDS011;58875;51.996;4.504;2023-03-04T05:28:20;4.42;;;3.19;;
71172;SDS011;58875;51.996;4.504;2023-03-04T05:30:45;4.14;;;3.01;;
71172;SDS011;58875;51.996;4.504;2023-03-04T05:33:12;4.30;;;3.13;;
71172;SDS011;58875;51.996;4.504;2023-03-04T05:35:39;4.24;;;3.11;;
71172;SDS011;58875;51.996;4.504;2023-03-04T05:38:07;3.95;;;2.93;;
71172;SDS011;58875;51.996;4.504;2023-03-04T05:40:35;4.24;;;3.10;;
71172;SDS011;58875;51.996;4.504;2023-03-04T05:43:01;4.02;;;2.94;;
71172;SDS011;58875;51.996;4.504;2023-03-04T05:45:26;4.34;;;3.12;;
71172;SDS011;58875;51.996;4.504;2023-03-04T05:47:52;4.34;;;3.19;;
71172;SDS011;58875;51.996;4.504;2023-03-04T05:50:19;4.28;;;3.15;;
71172;SDS011;58875;51.996;4.504;2023-03-04T05:52:46;4.52;;;3.36;;
71172;SDS011;58875;51.996;4.504;2023-03-04T05:55:12;3.92;;;2.95;;
71172;SDS011;58875;51.996;4.504;2023-03-04T05:57:39;3.82;;;2.91;;
71172;SDS011;58875;51.996;4.504;2023-03-04T06:00:05;4.10;;;3.04;;
71172;SDS011;58875;51.996;4.504;2023-03-04T06:02:35;3.91;;;2.91;;
71172;SDS011;58875;51.996;4.504;2023-03-04T06:05:01;3.76;;;2.80;;
71172;SDS011;58875;51.996;4.504;2023-03-04T06:07:28;3.83;;;2.85;;
71172;SDS011;58875;51.996;4.504;2023-03-04T06:09:54;4.37;;;3.19;;
71172;SDS011;58875;51.996;4.504;2023-03-04T06:12:19;4.33;;;3.14;;
71172;SDS011;58875;51.996;4.504;2023-03-04T06:14:45;4.41;;;3.21;;
71172;SDS011;58875;51.996;4.504;2023-03-04T06:17:11;4.09;;;3.05;;
71172;SDS011;58875;51.996;4.504;2023-03-04T06:19:37;4.04;;;3.07;;
71172;SDS011;58875;51.996;4.504;2023-03-04T06:22:03;3.47;;;2.65;;
71172;SDS011;58875;51.996;4.504;2023-03-04T06:24:29;3.52;;;2.69;;
71172;SDS011;58875;51.996;4.504;2023-03-04T06:26:55;3.63;;;2.76;;
71172;SDS011;58875;51.996;4.504;2023-03-04T06:29:21;3.72;;;2.83;;
71172;SDS011;58875;51.996;4.504;2023-03-04T06:31:47;3.66;;;2.78;;
71172;SDS011;58875;51.996;4.504;2023-03-04T06:34:12;3.84;;;2.90;;
71172;SDS011;58875;51.996;4.504;2023-03-04T06:36:38;3.72;;;2.80;;
71172;SDS011;58875;51.996;4.504;2023-03-04T06:39:04;3.57;;;2.74;;
71172;SDS011;58875;51.996;4.504;2023-03-04T06:41:31;3.70;;;2.86;;
71172;SDS011;58875;51.996;4.504;2023-03-04T06:43:57;3.52;;;2.71;;
71172;SDS011;58875;51.996;4.504;2023-03-04T06:46:25;3.63;;;2.81;;
71172;SDS011;58875;51.996;4.504;2023-03-04T06:48:52;3.65;;;2.82;;
71172;SDS011;58875;51.996;4.504;2023-03-04T06:51:17;4.00;;;3.04;;
71172;SDS011;58875;51.996;4.504;2023-03-04T06:53:43;3.78;;;2.92;;
71172;SDS011;58875;51.996;4.504;2023-03-04T06:56:10;3.56;;;2.82;;
71172;SDS011;58875;51.996;4.504;2023-03-04T06:58:40;3.85;;;3.00;;
71172;SDS011;58875;51.996;4.504;2023-03-04T07:01:10;3.55;;;2.79;;
71172;SDS011;58875;51.996;4.504;2023-03-04T07:03:40;3.79;;;2.94;;
71172;SDS011;58875;51.996;4.504;2023-03-04T07:06:08;3.66;;;2.83;;
71172;SDS011;58875;51.996;4.504;2023-03-04T07:08:34;3.78;;;2.91;;
71172;SDS011;58875;51.996;4.504;2023-03-04T07:11:00;3.89;;;2.99;;
71172;SDS011;58875;51.996;4.504;2023-03-04T07:13:26;3.74;;;2.91;;
71172;SDS011;58875;51.996;4.504;2023-03-04T07:15:51;3.56;;;2.81;;
71172;SDS011;58875;51.996;4.504;2023-03-04T07:18:17;3.33;;;2.61;;
71172;SDS011;58875;51.996;4.504;2023-03-04T07:20:42;3.24;;;2.53;;
71172;SDS011;58875;51.996;4.504;2023-03-04T07:23:08;3.18;;;2.46;;
71172;SDS011;58875;51.996;4.504;2023-03-04T07:25:34;3.03;;;2.31;;
71172;SDS011;58875;51.996;4.504;2023-03-04T07:27:59;2.91;;;2.17;;
71172;SDS011;58875;51.996;4.504;2023-03-04T07:30:25;2.90;;;2.17;;
71172;SDS011;58875;51.996;4.504;2023-03-04T07:32:51;2.81;;;2.17;;
71172;SDS011;58875;51.996;4.504;2023-03-04T07:35:17;2.99;;;2.39;;
71172;SDS011;58875;51.996;4.504;2023-03-04T07:37:43;2.57;;;2.03;;
71172;SDS011;58875;51.996;4.504;2023-03-04T07:40:09;2.39;;;1.90;;
71172;SDS011;58875;51.996;4.504;2023-03-04T07:42:35;2.72;;;2.21;;
71172;SDS011;58875;51.996;4.504;2023-03-04T07:45:01;2.11;;;1.71;;
71172;SDS011;58875;51.996;4.504;2023-03-04T07:47:29;2.24;;;1.85;;
71172;SDS011;58875;51.996;4.504;2023-03-04T07:49:55;2.40;;;2.04;;
71172;SDS011;58875;51.996;4.504;2023-03-04T07:52:21;2.12;;;1.78;;
71172;SDS011;58875;51.996;4.504;2023-03-04T07:54:46;2.03;;;1.71;;
71172;SDS011;58875;51.996;4.504;2023-03-04T07:57:12;1.94;;;1.64;;
71172;SDS011;58875;51.996;4.504;2023-03-04T07:59:37;2.08;;;1.71;;
71172;SDS011;58875;51.996;4.504;2023-03-04T08:02:04;1.96;;;1.61;;
71172;SDS011;58875;51.996;4.504;2023-03-04T08:04:30;2.15;;;1.79;;
71172;SDS011;58875;51.996;4.504;2023-03-04T08:06:56;2.33;;;1.93;;
71172;SDS011;58875;51.996;4.504;2023-03-04T08:09:22;1.98;;;1.64;;
71172;SDS011;58875;51.996;4.504;2023-03-04T08:11:47;1.77;;;1.47;;
71172;SDS011;58875;51.996;4.504;2023-03-04T08:14:13;1.80;;;1.49;;
71172;SDS011;58875;51.996;4.504;2023-03-04T08:16:39;1.90;;;1.55;;
71172;SDS011;58875;51.996;4.504;2023-03-04T08:19:05;1.75;;;1.41;;
71172;SDS011;58875;51.996;4.504;2023-03-04T08:21:31;1.99;;;1.59;;
71172;SDS011;58875;51.996;4.504;2023-03-04T08:23:59;1.84;;;1.48;;
71172;SDS011;58875;51.996;4.504;2023-03-04T08:26:32;1.73;;;1.41;;
71172;SDS011;58875;51.996;4.504;2023-03-04T08:29:03;1.72;;;1.38;;
71172;SDS011;58875;51.996;4.504;2023-03-04T08:31:29;1.65;;;1.31;;
71172;SDS011;58875;51.996;4.504;2023-03-04T08:33:55;1.49;;;1.18;;
71172;SDS011;58875;51.996;4.504;2023-03-04T08:36:21;1.40;;;1.09;;
71172;SDS011;58875;51.996;4.504;2023-03-04T08:38:46;1.21;;;0.94;;
71172;SDS011;58875;51.996;4.504;2023-03-04T08:41:12;1.33;;;1.03;;
71172;SDS011;58875;51.996;4.504;2023-03-04T08:43:38;1.39;;;1.08;;
71172;SDS011;58875;51.996;4.504;2023-03-04T08:46:04;1.37;;;1.06;;
71172;SDS011;58875;51.996;4.504;2023-03-04T08:48:30;1.33;;;1.03;;
71172;SDS011;58875;51.996;4.504;2023-03-04T08:50:55;1.22;;;0.93;;
71172;SDS011;58875;51.996;4.504;2023-03-04T08:53:21;1.52;;;1.15;;
71172;SDS011;58875;51.996;4.504;2023-03-04T08:55:47;1.59;;;1.18;;
71172;SDS011;58875;51.996;4.504;2023-03-04T08:58:15;1.60;;;1.19;;
71172;SDS011;58875;51.996;4.504;2023-03-04T09:00:42;1.44;;;1.06;;
71172;SDS011;58875;51.996;4.504;2023-03-04T09:03:12;1.44;;;1.07;;
71172;SDS011;58875;51.996;4.504;2023-03-04T09:05:38;1.84;;;1.37;;
71172;SDS011;58875;51.996;4.504;2023-03-04T09:08:04;1.66;;;1.26;;
71172;SDS011;58875;51.996;4.504;2023-03-04T09:10:30;1.77;;;1.36;;
71172;SDS011;58875;51.996;4.504;2023-03-04T09:12:56;1.72;;;1.32;;
71172;SDS011;58875;51.996;4.504;2023-03-04T09:15:23;1.40;;;1.10;;
71172;SDS011;58875;51.996;4.504;2023-03-04T09:17:48;1.60;;;1.25;;
71172;SDS011;58875;51.996;4.504;2023-03-04T09:20:14;1.72;;;1.33;;
71172;SDS011;58875;51.996;4.504;2023-03-04T09:22:40;1.65;;;1.30;;
71172;SDS011;58875;51.996;4.504;2023-03-04T09:25:06;1.68;;;1.32;;
71172;SDS011;58875;51.996;4.504;2023-03-04T09:27:33;1.82;;;1.44;;
71172;SDS011;58875;51.996;4.504;2023-03-04T09:29:59;1.86;;;1.49;;
71172;SDS011;58875;51.996;4.504;2023-03-04T09:32:24;1.86;;;1.51;;
71172;SDS011;58875;51.996;4.504;2023-03-04T09:34:50;1.73;;;1.44;;
71172;SDS011;58875;51.996;4.504;2023-03-04T09:37:15;1.67;;;1.41;;
71172;SDS011;58875;51.996;4.504;2023-03-04T09:39:41;1.72;;;1.41;;
71172;SDS011;58875;51.996;4.504;2023-03-04T09:42:07;1.93;;;1.56;;
71172;SDS011;58875;51.996;4.504;2023-03-04T09:44:39;1.91;;;1.56;;
71172;SDS011;58875;51.996;4.504;2023-03-04T09:47:11;1.63;;;1.34;;
71172;SDS011;58875;51.996;4.504;2023-03-04T09:49:41;1.75;;;1.43;;
71172;SDS011;58875;51.996;4.504;2023-03-04T10:06:19;1.36;;;1.10;;
71172;SDS011;58875;51.996;4.504;2023-03-04T10:10:50;1.57;;;1.29;;
71172;SDS011;58875;51.996;4.504;2023-03-04T10:13:23;1.60;;;1.30;;
71172;SDS011;58875;51.996;4.504;2023-03-04T10:16:05;1.76;;;1.42;;
71172;SDS011;58875;51.996;4.504;2023-03-04T10:18:40;1.29;;;1.02;;
71172;SDS011;58875;51.996;4.504;2023-03-04T10:21:21;1.22;;;0.96;;
71172;SDS011;58875;51.996;4.504;2023-03-04T10:23:59;1.04;;;0.81;;
71172;SDS011;58875;51.996;4.504;2023-03-04T10:26:29;1.07;;;0.82;;
71172;SDS011;58875;51.996;4.504;2023-03-04T10:28:57;1.00;;;0.76;;
71172;SDS011;58875;51.996;4.504;2023-03-04T10:31:34;1.20;;;0.90;;
71172;SDS011;58875;51.996;4.504;2023-03-04T10:34:05;1.31;;;0.98;;
71172;SDS011;58875;51.996;4.504;2023-03-04T10:39:07;1.57;;;1.21;;
71172;SDS011;58875;51.996;4.504;2023-03-04T10:41:35;2.05;;;1.57;;
71172;SDS011;58875;51.996;4.504;2023-03-04T10:46:38;1.94;;;1.48;;
71172;SDS011;58875;51.996;4.504;2023-03-04T10:49:05;1.88;;;1.44;;
71172;SDS011;58875;51.996;4.504;2023-03-04T10:51:30;2.40;;;1.86;;
71172;SDS011;58875;51.996;4.504;2023-03-04T10:56:40;2.17;;;1.67;;
71172;SDS011;58875;51.996;4.504;2023-03-04T11:04:53;2.41;;;1.86;;
71172;SDS011;58875;51.996;4.504;2023-03-04T11:07:39;2.19;;;1.69;;
71172;SDS011;58875;51.996;4.504;2023-03-04T11:12:48;2.27;;;1.75;;
71172;SDS011;58875;51.996;4.504;2023-03-04T11:15:17;2.39;;;1.83;;
71172;SDS011;58875;51.996;4.504;2023-03-04T11:18:27;2.56;;;1.93;;
71172;SDS011;58875;51.996;4.504;2023-03-04T11:21:05;2.19;;;1.65;;
71172;SDS011;58875;51.996;4.504;2023-03-04T11:23:57;2.11;;;1.60;;
71172;SDS011;58875;51.996;4.504;2023-03-04T11:26:27;1.61;;;1.23;;
71172;SDS011;58875;51.996;4.504;2023-03-04T11:31:37;1.83;;;1.41;;
71172;SDS011;58875;51.996;4.504;2023-03-04T11:44:42;2.12;;;1.66;;
71172;SDS011;58875;51.996;4.504;2023-03-04T11:57:45;1.79;;;1.42;;
71172;SDS011;58875;51.996;4.504;2023-03-04T12:06:01;1.86;;;1.42;;
71172;SDS011;58875;51.996;4.504;2023-03-04T12:17:23;0.80;;;0.63;;
71172;SDS011;58875;51.996;4.504;2023-03-04T12:22:26;0.81;;;0.63;;
71172;SDS011;58875;51.996;4.504;2023-03-04T12:28:14;1.66;;;1.30;;
71172;SDS011;58875;51.996;4.504;2023-03-04T12:44:11;1.66;;;1.43;;
71172;SDS011;58875;51.996;4.504;2023-03-04T12:49:54;1.39;;;1.22;;
71172;SDS011;58875;51.996;4.504;2023-03-04T12:55:19;1.87;;;1.56;;
71172;SDS011;58875;51.996;4.504;2023-03-04T12:57:55;2.14;;;1.76;;
71172;SDS011;58875;51.996;4.504;2023-03-04T13:20:17;2.92;;;2.19;;
71172;SDS011;58875;51.996;4.504;2023-03-04T13:51:26;2.65;;;1.93;;
71172;SDS011;58875;51.996;4.504;2023-03-04T13:56:23;3.78;;;2.57;;
71172;SDS011;58875;51.996;4.504;2023-03-04T14:06:43;4.57;;;3.07;;
71172;SDS011;58875;51.996;4.504;2023-03-04T14:09:14;3.92;;;2.63;;
71172;SDS011;58875;51.996;4.504;2023-03-04T14:11:41;5.05;;;3.43;;
71172;SDS011;58875;51.996;4.504;2023-03-04T14:14:19;4.55;;;3.19;;
71172;SDS011;58875;51.996;4.504;2023-03-04T14:16:55;4.15;;;2.89;;
71172;SDS011;58875;51.996;4.504;2023-03-04T14:19:25;4.27;;;2.97;;
71172;SDS011;58875;51.996;4.504;2023-03-04T14:21:55;3.81;;;2.68;;
71172;SDS011;58875;51.996;4.504;2023-03-04T14:24:23;4.30;;;3.01;;
71172;SDS011;58875;51.996;4.504;2023-03-04T14:26:49;4.19;;;2.92;;
71172;SDS011;58875;51.996;4.504;2023-03-04T14:29:34;4.42;;;3.05;;
71172;SDS011;58875;51.996;4.504;2023-03-04T14:31:59;4.83;;;3.31;;
71172;SDS011;58875;51.996;4.504;2023-03-04T14:34:30;5.30;;;3.58;;
71172;SDS011;58875;51.996;4.504;2023-03-04T14:37:00;5.51;;;3.67;;
71172;SDS011;58875;51.996;4.504;2023-03-04T14:39:31;5.41;;;3.57;;
71172;SDS011;58875;51.996;4.504;2023-03-04T14:42:09;5.96;;;3.91;;
71172;SDS011;58875;51.996;4.504;2023-03-04T14:44:49;5.35;;;3.54;;
71172;SDS011;58875;51.996;4.504;2023-03-04T14:49:47;5.75;;;3.75;;
71172;SDS011;58875;51.996;4.504;2023-03-04T14:57:50;6.46;;;4.12;;
71172;SDS011;58875;51.996;4.504;2023-03-04T15:02:58;6.76;;;4.27;;
71172;SDS011;58875;51.996;4.504;2023-03-04T15:05:33;7.09;;;4.44;;
71172;SDS011;58875;51.996;4.504;2023-03-04T15:08:02;6.04;;;3.78;;
71172;SDS011;58875;51.996;4.504;2023-03-04T15:10:31;6.15;;;3.89;;
71172;SDS011;58875;51.996;4.504;2023-03-04T15:13:01;6.89;;;4.40;;
71172;SDS011;58875;51.996;4.504;2023-03-04T15:15:33;6.72;;;4.32;;
71172;SDS011;58875;51.996;4.504;2023-03-04T15:18:12;6.10;;;3.87;;
71172;SDS011;58875;51.996;4.504;2023-03-04T15:23:43;6.32;;;3.97;;
71172;SDS011;58875;51.996;4.504;2023-03-04T15:26:09;6.97;;;4.35;;
71172;SDS011;58875;51.996;4.504;2023-03-04T15:28:37;8.15;;;5.08;;
71172;SDS011;58875;51.996;4.504;2023-03-04T15:31:06;7.54;;;4.71;;
71172;SDS011;58875;51.996;4.504;2023-03-04T15:33:41;6.05;;;3.84;;
71172;SDS011;58875;51.996;4.504;2023-03-04T15:36:08;5.69;;;3.68;;
71172;SDS011;58875;51.996;4.504;2023-03-04T15:38:39;5.00;;;3.26;;
71172;SDS011;58875;51.996;4.504;2023-03-04T15:41:09;6.24;;;4.07;;
71172;SDS011;58875;51.996;4.504;2023-03-04T15:43:36;6.20;;;4.09;;
71172;SDS011;58875;51.996;4.504;2023-03-04T15:46:02;7.81;;;5.14;;
71172;SDS011;58875;51.996;4.504;2023-03-04T15:48:28;8.94;;;6.03;;
71172;SDS011;58875;51.996;4.504;2023-03-04T15:50:55;5.92;;;4.08;;
71172;SDS011;58875;51.996;4.504;2023-03-04T15:55:54;4.97;;;3.32;;
71172;SDS011;58875;51.996;4.504;2023-03-04T15:58:20;5.70;;;3.76;;
71172;SDS011;58875;51.996;4.504;2023-03-04T16:00:46;6.11;;;4.06;;
71172;SDS011;58875;51.996;4.504;2023-03-04T16:03:15;5.69;;;3.86;;
71172;SDS011;58875;51.996;4.504;2023-03-04T16:05:43;5.69;;;3.83;;
71172;SDS011;58875;51.996;4.504;2023-03-04T16:08:12;6.61;;;4.46;;
71172;SDS011;58875;51.996;4.504;2023-03-04T16:10:40;6.02;;;4.07;;
71172;SDS011;58875;51.996;4.504;2023-03-04T16:13:12;5.58;;;3.73;;
71172;SDS011;58875;51.996;4.504;2023-03-04T16:15:39;5.04;;;3.31;;
71172;SDS011;58875;51.996;4.504;2023-03-04T16:18:05;5.51;;;3.59;;
71172;SDS011;58875;51.996;4.504;2023-03-04T16:20:32;25.99;;;19.05;;
71172;SDS011;58875;51.996;4.504;2023-03-04T16:22:59;16.75;;;14.16;;
71172;SDS011;58875;51.996;4.504;2023-03-04T16:25:26;14.71;;;13.73;;
71172;SDS011;58875;51.996;4.504;2023-03-04T16:27:54;7.90;;;7.77;;
71172;SDS011;58875;51.996;4.504;2023-03-04T16:30:22;4.73;;;4.69;;
71172;SDS011;58875;51.996;4.504;2023-03-04T16:32:51;3.60;;;3.60;;
71172;SDS011;58875;51.996;4.504;2023-03-04T16:35:18;4.12;;;4.10;;
71172;SDS011;58875;51.996;4.504;2023-03-04T16:37:45;3.43;;;3.35;;
71172;SDS011;58875;51.996;4.504;2023-03-04T16:40:12;5.26;;;5.18;;
71172;SDS011;58875;51.996;4.504;2023-03-04T16:42:40;3.14;;;3.14;;
71172;SDS011;58875;51.996;4.504;2023-03-04T16:45:13;2.97;;;2.90;;
71172;SDS011;58875;51.996;4.504;2023-03-04T16:47:45;4.20;;;4.00;;
71172;SDS011;58875;51.996;4.504;2023-03-04T16:50:15;3.81;;;3.59;;
71172;SDS011;58875;51.996;4.504;2023-03-04T16:52:44;10.48;;;10.47;;
71172;SDS011;58875;51.996;4.504;2023-03-04T16:55:16;12.32;;;12.32;;
71172;SDS011;58875;51.996;4.504;2023-03-04T16:57:48;6.80;;;6.80;;
71172;SDS011;58875;51.996;4.504;2023-03-04T17:00:14;3.95;;;3.95;;
71172;SDS011;58875;51.996;4.504;2023-03-04T17:02:42;1.57;;;1.57;;
71172;SDS011;58875;51.996;4.504;2023-03-04T17:05:16;1.47;;;1.42;;
71172;SDS011;58875;51.996;4.504;2023-03-04T17:07:44;19.19;;;18.67;;
71172;SDS011;58875;51.996;4.504;2023-03-04T17:10:10;8.67;;;8.67;;
71172;SDS011;58875;51.996;4.504;2023-03-04T17:12:37;2.45;;;2.45;;
71172;SDS011;58875;51.996;4.504;2023-03-04T17:15:03;1.70;;;1.70;;
71172;SDS011;58875;51.996;4.504;2023-03-04T17:17:29;1.86;;;1.86;;
71172;SDS011;58875;51.996;4.504;2023-03-04T17:19:55;1.40;;;1.39;;
71172;SDS011;58875;51.996;4.504;2023-03-04T17:22:21;1.64;;;1.50;;
71172;SDS011;58875;51.996;4.504;2023-03-04T17:24:47;2.53;;;2.25;;
71172;SDS011;58875;51.996;4.504;2023-03-04T17:27:13;2.71;;;2.43;;
71172;SDS011;58875;51.996;4.504;2023-03-04T17:29:38;2.30;;;2.07;;
71172;SDS011;58875;51.996;4.504;2023-03-04T17:32:04;2.51;;;2.27;;
71172;SDS011;58875;51.996;4.504;2023-03-04T17:34:30;2.98;;;2.74;;
71172;SDS011;58875;51.996;4.504;2023-03-04T17:36:56;3.04;;;2.81;;
71172;SDS011;58875;51.996;4.504;2023-03-04T17:39:24;3.15;;;2.98;;
71172;SDS011;58875;51.996;4.504;2023-03-04T17:41:50;3.28;;;3.14;;
71172;SDS011;58875;51.996;4.504;2023-03-04T17:44:17;2.58;;;2.45;;